createdAt,value
2023-05-11T00:02:26.186Z,9.85
2023-05-11T00:06:27.808Z,9.30
2023-05-11T00:10:29.694Z,7.25
2023-05-11T00:14:32.560Z,10.20
2023-05-11T00:18:34.104Z,11.18
2023-05-11T00:22:35.598Z,9.48
2023-05-11T00:26:37.131Z,12.80
2023-05-11T00:30:41.177Z,9.10
2023-05-11T00:34:42.681Z,11.30
2023-05-11T00:38:44.156Z,7.93
2023-05-11T00:42:45.616Z,11.25
2023-05-11T00:46:49.105Z,11.95
2023-05-11T00:50:50.791Z,9.98
2023-05-11T00:54:52.355Z,9.98
2023-05-11T00:58:53.914Z,10.38
2023-05-11T01:02:57.662Z,9.40
2023-05-11T01:07:06.726Z,12.90
2023-05-11T01:11:15.271Z,10.10
2023-05-11T01:15:24.567Z,11.13
2023-05-11T01:19:39.354Z,18.23
2023-05-11T01:23:57.313Z,12.05
2023-05-11T01:28:23.034Z,17.95
2023-05-11T01:32:28.716Z,11.05
2023-05-11T01:36:34.093Z,14.68
2023-05-11T01:40:37.130Z,10.63
2023-05-11T01:44:42.281Z,13.35
2023-05-11T01:48:49.068Z,15.02
2023-05-11T01:52:52.578Z,11.80
2023-05-11T01:56:55.925Z,10.73
2023-05-11T02:00:58.116Z,12.30
2023-05-11T02:05:03.015Z,15.80
2023-05-11T02:09:07.298Z,11.60
2023-05-11T02:13:10.006Z,11.35
2023-05-11T02:17:12.921Z,11.07
2023-05-11T02:21:16.654Z,12.80
2023-05-11T02:25:18.679Z,13.30
2023-05-11T02:29:20.207Z,9.20
2023-05-11T02:33:27.989Z,9.20
2023-05-11T02:37:33.412Z,14.40
2023-05-11T02:41:41.052Z,13.13
2023-05-11T02:45:44.059Z,8.95
2023-05-11T02:49:49.201Z,8.57
2023-05-11T02:53:55.805Z,10.05
2023-05-11T02:57:57.505Z,10.18
2023-05-11T03:02:00.639Z,11.55
2023-05-11T03:06:02.272Z,7.75
2023-05-11T03:10:07.027Z,14.35
2023-05-11T03:14:08.612Z,10.27
2023-05-11T03:18:11.349Z,9.88
2023-05-11T03:22:14.012Z,8.75
2023-05-11T03:26:18.686Z,9.23
2023-05-11T03:30:21.798Z,8.63
2023-05-11T03:34:23.316Z,6.82
2023-05-11T03:38:29.070Z,6.72
2023-05-11T03:46:37.939Z,5.88
2023-05-11T03:50:40.416Z,8.82
2023-05-11T03:54:43.016Z,8.32
2023-05-11T03:58:45.961Z,10.90
2023-05-11T04:02:47.588Z,6.88
2023-05-11T04:06:49.147Z,10.85
2023-05-11T04:10:50.619Z,10.80
2023-05-11T04:14:53.435Z,10.15
2023-05-11T04:18:54.932Z,6.65
2023-05-11T04:22:56.414Z,10.00
2023-05-11T04:26:57.929Z,8.13
2023-05-11T04:31:00.891Z,18.80
2023-05-11T04:35:02.450Z,9.45
2023-05-11T04:39:04.049Z,8.05
2023-05-11T04:43:05.535Z,8.32
2023-05-11T04:47:08.438Z,7.82
2023-05-11T04:51:09.990Z,7.47
2023-05-11T04:55:11.517Z,9.35
2023-05-11T04:59:12.993Z,7.07
2023-05-11T05:03:15.891Z,6.75
2023-05-11T05:07:17.460Z,5.38
2023-05-11T05:11:19.018Z,10.75
2023-05-11T05:15:20.517Z,8.20
2023-05-11T05:19:23.345Z,5.78
2023-05-11T05:23:24.876Z,7.43
2023-05-11T05:27:26.346Z,6.32
2023-05-11T05:31:27.878Z,9.23
2023-05-11T05:35:30.724Z,6.63
2023-05-11T05:39:32.201Z,7.30
2023-05-11T05:43:33.686Z,4.60
2023-05-11T05:47:35.229Z,5.18
2023-05-11T05:51:38.120Z,8.68
2023-05-11T05:55:39.668Z,4.85
2023-05-11T05:59:41.210Z,7.28
2023-05-11T06:03:43.347Z,5.45
2023-05-11T06:07:54.414Z,6.40
2023-05-11T06:12:04.038Z,7.30
2023-05-11T06:16:05.797Z,5.68
2023-05-11T06:20:08.547Z,4.65
2023-05-11T06:24:11.614Z,5.75
2023-05-11T06:28:13.154Z,6.53
2023-05-11T06:32:14.660Z,6.97
2023-05-11T06:36:16.313Z,5.40
2023-05-11T06:40:19.617Z,8.05
2023-05-11T06:44:21.271Z,6.40
2023-05-11T06:48:22.759Z,4.80
2023-05-11T06:52:24.272Z,4.88
2023-05-11T06:56:27.125Z,4.70
2023-05-11T07:00:28.602Z,4.15
2023-05-11T07:04:30.228Z,5.50
2023-05-11T07:08:31.777Z,6.10
2023-05-11T07:12:34.631Z,7.40
2023-05-11T07:16:36.235Z,6.38
2023-05-11T07:20:41.224Z,4.45
2023-05-11T07:24:43.322Z,3.88
2023-05-11T07:28:46.184Z,9.40
2023-05-11T07:32:48.508Z,6.30
2023-05-11T07:36:50.969Z,5.32
2023-05-11T07:40:52.494Z,5.07
2023-05-11T07:44:55.334Z,7.20
2023-05-11T07:49:11.309Z,7.20
2023-05-11T07:53:17.063Z,5.20
2023-05-11T07:57:19.257Z,5.38
2023-05-11T08:01:22.291Z,4.50
2023-05-11T08:05:23.824Z,5.10
2023-05-11T08:09:25.434Z,4.03
2023-05-11T08:13:27.121Z,5.05
2023-05-11T08:17:30.311Z,6.43
2023-05-11T08:21:31.858Z,3.78
2023-05-11T08:25:33.384Z,7.75
2023-05-11T08:29:34.907Z,4.15
2023-05-11T08:33:38.871Z,4.53
2023-05-11T08:37:40.654Z,5.13
2023-05-11T08:41:43.078Z,5.03
2023-05-11T08:45:46.086Z,5.10
2023-05-11T08:49:50.322Z,4.30
2023-05-11T08:53:52.051Z,4.30
2023-05-11T08:57:55.717Z,4.47
2023-05-11T09:01:58.254Z,4.60
2023-05-11T09:06:04.560Z,3.80
2023-05-11T09:10:07.342Z,4.75
2023-05-11T09:14:08.957Z,4.55
2023-05-11T09:18:10.464Z,4.03
2023-05-11T09:22:13.338Z,4.88
2023-05-11T09:26:15.123Z,6.75
2023-05-11T09:34:23.617Z,3.83
2023-05-11T09:38:26.484Z,4.65
2023-05-11T09:42:29.909Z,3.42
2023-05-11T09:46:31.475Z,4.70
2023-05-11T09:50:33.332Z,4.97
2023-05-11T09:54:40.988Z,4.53
2023-05-11T09:58:50.970Z,3.45
2023-05-11T10:03:04.079Z,5.07
2023-05-11T10:07:05.745Z,4.25
2023-05-11T10:11:08.846Z,4.18
2023-05-11T10:15:11.325Z,4.28
2023-05-11T10:19:13.301Z,3.75
2023-05-11T10:23:18.298Z,3.92
2023-05-11T10:27:21.738Z,4.75
2023-05-11T10:31:24.217Z,3.80
2023-05-11T10:35:26.484Z,3.15
2023-05-11T10:39:28.879Z,4.35
2023-05-11T10:43:49.810Z,3.15
2023-05-11T10:48:30.479Z,3.17
2023-05-11T10:57:02.480Z,3.88
2023-05-11T11:01:30.877Z,4.50
2023-05-11T11:05:33.463Z,2.92
2023-05-11T11:09:52.852Z,2.80
2023-05-11T11:13:58.161Z,3.83
2023-05-11T11:18:20.617Z,3.60
2023-05-11T11:22:44.201Z,2.75
2023-05-11T11:26:47.589Z,4.15
2023-05-11T11:31:09.169Z,3.33
2023-05-11T11:35:40.432Z,4.10
2023-05-11T11:39:53.416Z,5.18
2023-05-11T11:43:54.964Z,2.95
2023-05-11T11:48:10.769Z,2.78
2023-05-11T11:52:13.346Z,3.13
2023-05-11T11:56:46.353Z,4.30
2023-05-11T12:00:48.005Z,3.17
2023-05-11T12:04:57.346Z,2.95
2023-05-11T12:08:58.989Z,3.78
2023-05-11T12:13:02.134Z,3.92
2023-05-11T12:17:08.455Z,3.22
2023-05-11T12:21:19.304Z,3.15
2023-05-11T12:25:21.384Z,3.72
2023-05-11T12:29:24.769Z,2.72
2023-05-11T12:33:26.302Z,2.70
2023-05-11T12:37:28.553Z,3.72
2023-05-11T12:41:30.086Z,3.95
2023-05-11T12:45:33.071Z,3.28
2023-05-11T12:49:34.644Z,3.38
2023-05-11T12:53:36.348Z,2.70
2023-05-11T12:57:39.288Z,3.88
2023-05-11T13:01:42.233Z,3.47
2023-05-11T13:05:43.842Z,3.55
2023-05-11T13:09:56.048Z,3.60
2023-05-11T13:13:57.557Z,4.22
2023-05-11T13:18:02.203Z,6.28
2023-05-11T13:22:04.136Z,3.88
2023-05-11T13:26:05.666Z,3.72
2023-05-11T13:30:08.339Z,3.10
2023-05-11T13:34:11.214Z,4.05
2023-05-11T13:38:12.934Z,5.32
2023-05-11T13:42:14.454Z,3.50
2023-05-11T13:46:15.942Z,4.63
2023-05-11T13:50:18.776Z,2.60
2023-05-11T13:54:20.246Z,5.53
2023-05-11T13:58:21.754Z,2.50
2023-05-11T14:02:23.292Z,4.10
2023-05-11T14:06:26.220Z,1.85
2023-05-11T14:10:27.738Z,2.65
2023-05-11T14:14:29.238Z,3.53
2023-05-11T14:18:30.787Z,3.10
2023-05-11T14:22:33.722Z,5.18
2023-05-11T14:26:35.289Z,2.75
2023-05-11T14:30:36.825Z,2.65
2023-05-11T14:34:38.354Z,3.20
2023-05-11T14:38:41.195Z,2.35
2023-05-11T14:42:42.684Z,3.33
2023-05-11T14:46:44.315Z,3.03
2023-05-11T14:50:45.923Z,4.40
2023-05-11T14:54:48.749Z,5.07
2023-05-11T14:58:50.274Z,4.78
2023-05-11T15:02:51.981Z,2.95
2023-05-11T15:06:53.804Z,2.28
2023-05-11T15:10:56.666Z,3.72
2023-05-11T15:14:58.151Z,2.20
2023-05-11T15:18:59.764Z,2.38
2023-05-11T15:23:01.354Z,2.13
2023-05-11T15:27:04.543Z,2.85
2023-05-11T15:31:06.067Z,5.03
2023-05-11T15:35:08.372Z,4.63
2023-05-11T15:39:09.860Z,4.65
2023-05-11T15:43:12.696Z,2.67
2023-05-11T15:47:14.167Z,3.70
2023-05-11T15:51:15.665Z,3.78
2023-05-11T15:55:17.419Z,2.42
2023-05-11T15:59:20.617Z,2.03
2023-05-11T16:03:22.283Z,3.58
2023-05-11T16:07:23.856Z,4.55
2023-05-11T16:11:25.338Z,2.45
2023-05-11T16:15:28.232Z,3.65
2023-05-11T16:19:29.713Z,2.63
2023-05-11T16:23:31.276Z,2.85
2023-05-11T16:27:32.743Z,2.75
2023-05-11T16:31:35.641Z,2.95
2023-05-11T16:35:37.144Z,3.78
2023-05-11T16:39:38.702Z,3.35
2023-05-11T16:43:40.191Z,2.38
2023-05-11T16:47:43.121Z,2.45
2023-05-11T16:51:44.670Z,3.25
2023-05-11T16:55:46.170Z,3.38
2023-05-11T16:59:47.653Z,4.05
2023-05-11T17:03:50.646Z,3.60
2023-05-11T17:07:52.187Z,3.50
2023-05-11T17:11:53.686Z,2.85
2023-05-11T17:15:55.342Z,5.30
2023-05-11T17:19:58.215Z,6.75
2023-05-11T17:23:59.699Z,4.75
2023-05-11T17:28:01.191Z,3.30
2023-05-11T17:32:02.819Z,3.85
2023-05-11T17:36:06.642Z,3.70
2023-05-11T17:40:09.015Z,4.53
2023-05-11T17:44:10.500Z,3.75
2023-05-11T17:48:12.015Z,3.05
2023-05-11T17:52:15.182Z,3.50
2023-05-11T17:56:16.779Z,6.13
2023-05-11T18:00:19.072Z,5.65
2023-05-11T18:04:20.701Z,3.90
2023-05-11T18:08:23.538Z,4.03
2023-05-11T18:12:25.027Z,2.92
2023-05-11T18:16:26.567Z,3.40
2023-05-11T18:20:28.144Z,3.40
2023-05-11T18:24:31.051Z,2.78
2023-05-11T18:28:32.525Z,4.68
2023-05-11T18:32:34.082Z,3.63
2023-05-11T18:36:35.598Z,5.90
2023-05-11T18:40:38.429Z,3.97
2023-05-11T18:44:39.925Z,4.68
2023-05-11T18:48:41.419Z,4.40
2023-05-11T18:52:42.898Z,4.22
2023-05-11T18:56:45.727Z,1.80
2023-05-11T19:00:47.355Z,3.10
2023-05-11T19:04:48.919Z,4.63
2023-05-11T19:08:50.397Z,2.72
2023-05-11T19:12:53.235Z,6.70
2023-05-11T19:16:54.817Z,3.58
2023-05-11T19:20:56.315Z,4.60
2023-05-11T19:24:57.935Z,3.13
2023-05-11T19:29:00.783Z,3.38
2023-05-11T19:33:02.295Z,3.13
2023-05-11T19:37:03.920Z,3.30
2023-05-11T19:41:05.400Z,3.72
2023-05-11T19:45:09.102Z,4.03
2023-05-11T19:49:10.619Z,5.55
2023-05-11T19:53:12.113Z,3.40
2023-05-11T19:57:13.928Z,5.68
2023-05-11T20:01:16.812Z,3.63
2023-05-11T20:05:18.392Z,9.05
2023-05-11T20:09:19.913Z,3.22
2023-05-11T20:13:22.189Z,5.40
2023-05-11T20:17:25.186Z,4.40
2023-05-11T20:21:26.988Z,6.82
2023-05-11T20:25:28.764Z,3.80
2023-05-11T20:29:30.232Z,6.75
2023-05-11T20:37:37.469Z,6.72
2023-05-11T20:41:38.939Z,8.52
2023-05-11T20:45:40.446Z,5.43
2023-05-11T20:49:43.635Z,4.68
2023-05-11T20:53:45.151Z,9.30
2023-05-11T20:57:46.660Z,7.90
2023-05-11T21:01:48.120Z,5.20
2023-05-11T21:05:50.943Z,5.63
2023-05-11T21:09:52.444Z,5.22
2023-05-11T21:13:53.925Z,6.97
2023-05-11T21:17:55.433Z,5.60
2023-05-11T21:21:58.279Z,4.03
2023-05-11T21:25:59.763Z,5.35
2023-05-11T21:30:01.289Z,5.22
2023-05-11T21:34:02.822Z,5.13
2023-05-11T21:38:05.730Z,4.28
2023-05-11T21:42:07.418Z,5.15
2023-05-11T21:46:08.961Z,4.50
2023-05-11T21:50:11.485Z,5.90
2023-05-11T21:54:14.393Z,4.35
2023-05-11T21:58:16.072Z,6.35
2023-05-11T22:02:17.594Z,7.38
2023-05-11T22:06:19.105Z,5.65
2023-05-11T22:10:22.036Z,7.63
2023-05-11T22:14:23.510Z,4.57
2023-05-11T22:18:25.154Z,6.00
2023-05-11T22:22:26.703Z,5.40
2023-05-11T22:26:29.570Z,7.90
2023-05-11T22:30:31.334Z,8.50
2023-05-11T22:34:32.835Z,9.30
2023-05-11T22:38:34.329Z,11.98
2023-05-11T22:42:37.880Z,6.13
2023-05-11T22:46:39.378Z,5.95
2023-05-11T22:50:41.154Z,6.30
2023-05-11T22:54:42.648Z,6.70
2023-05-11T22:58:45.588Z,5.43
2023-05-11T23:02:47.167Z,4.60
2023-05-11T23:06:48.722Z,7.97
2023-05-11T23:10:50.242Z,7.05
2023-05-11T23:14:53.082Z,10.13
2023-05-11T23:18:54.679Z,4.80
2023-05-11T23:22:56.236Z,8.18
2023-05-11T23:26:57.785Z,6.47
2023-05-11T23:31:00.769Z,5.07
2023-05-11T23:35:02.254Z,6.60
2023-05-11T23:39:04.002Z,6.47
2023-05-11T23:43:05.534Z,6.82
2023-05-11T23:47:08.434Z,6.07
2023-05-11T23:51:09.964Z,6.97
2023-05-11T23:55:12.067Z,9.30
2023-05-11T23:59:14.610Z,9.85
